createdAt,value
2022-10-16T00:00:52.584Z,100077.19
2022-10-16T00:01:36.685Z,100068.47
2022-10-16T00:02:17.629Z,100079.91
2022-10-16T00:03:04.668Z,100069.16
2022-10-16T00:03:59.546Z,100073.44
2022-10-16T00:04:53.565Z,100081.13
2022-10-16T00:05:53.541Z,100071.03
2022-10-16T00:06:47.561Z,100072.78
2022-10-16T00:07:41.555Z,100079.06
2022-10-16T00:08:28.610Z,100071.75
2022-10-16T00:09:09.621Z,100072.09
2022-10-16T00:09:49.565Z,100068.16
2022-10-16T00:10:30.612Z,100074.28
2022-10-16T00:11:20.545Z,100060.97
2022-10-16T00:12:00.651Z,100079.72
2022-10-16T00:12:40.530Z,100067.09
2022-10-16T00:13:21.725Z,100078.22
2022-10-16T00:14:08.560Z,100069.69
2022-10-16T00:14:49.624Z,100075.00
2022-10-16T00:15:29.562Z,100063.06
2022-10-16T00:16:11.645Z,100080.44
2022-10-16T00:16:51.537Z,100082.47
2022-10-16T00:17:31.599Z,100083.53
2022-10-16T00:18:13.530Z,100080.09
2022-10-16T00:18:54.617Z,100078.91
2022-10-16T00:19:34.708Z,100084.88
2022-10-16T00:20:15.576Z,100080.09
2022-10-16T00:21:37.600Z,100072.78
2022-10-16T00:22:17.533Z,100078.41
2022-10-16T00:22:58.099Z,100084.69
2022-10-16T00:23:39.562Z,100069.56
2022-10-16T00:24:19.655Z,100080.44
2022-10-16T00:24:59.566Z,100066.16
2022-10-16T00:25:40.572Z,100082.16
2022-10-16T00:26:24.526Z,100085.56
2022-10-16T00:27:04.577Z,100079.78
2022-10-16T00:27:44.517Z,100079.38
2022-10-16T00:28:24.683Z,100080.44
2022-10-16T00:29:05.641Z,100075.66
2022-10-16T00:29:46.688Z,100085.91
2022-10-16T00:30:26.651Z,100055.06
2022-10-16T00:31:06.646Z,100076.38
2022-10-16T00:31:46.502Z,100070.59
2022-10-16T00:32:27.914Z,100078.94
2022-10-16T00:33:08.513Z,100077.38
2022-10-16T00:33:48.560Z,100067.88
2022-10-16T00:34:28.535Z,100070.22
2022-10-16T00:35:09.630Z,100080.44
2022-10-16T00:35:49.557Z,100078.22
2022-10-16T00:36:33.029Z,100070.94
2022-10-16T00:37:13.504Z,100062.44
2022-10-16T00:37:53.587Z,100086.94
2022-10-16T00:38:34.506Z,100084.03
2022-10-16T00:39:14.588Z,100068.50
2022-10-16T00:39:55.500Z,100073.47
2022-10-16T00:40:35.582Z,100062.03
2022-10-16T00:41:20.561Z,100087.59
2022-10-16T00:42:00.628Z,100076.38
2022-10-16T00:42:40.526Z,100065.97
2022-10-16T00:43:49.603Z,100078.41
2022-10-16T00:44:54.502Z,100085.06
2022-10-16T00:45:35.574Z,100064.97
2022-10-16T00:46:42.527Z,100071.28
2022-10-16T00:47:37.628Z,100060.38
2022-10-16T00:48:22.516Z,100076.72
2022-10-16T00:49:24.588Z,100079.44
2022-10-16T00:50:34.515Z,100081.50
2022-10-16T00:51:15.595Z,100075.38
2022-10-16T00:51:58.522Z,100070.25
2022-10-16T00:52:38.732Z,100071.94
2022-10-16T00:53:19.490Z,100062.09
2022-10-16T00:54:00.678Z,100073.50
2022-10-16T00:54:41.507Z,100063.13
2022-10-16T00:55:22.597Z,100033.69
2022-10-16T00:56:02.509Z,100058.72
2022-10-16T00:56:42.625Z,100048.13
2022-10-16T00:57:22.525Z,100053.25
2022-10-16T00:58:03.565Z,100065.84
2022-10-16T00:58:43.481Z,100067.22
2022-10-16T00:59:42.557Z,100072.31
2022-10-16T01:00:27.534Z,100060.75
2022-10-16T01:01:08.611Z,100062.81
2022-10-16T01:01:48.516Z,100055.97
2022-10-16T01:02:35.524Z,100065.16
2022-10-16T01:03:34.637Z,100075.38
2022-10-16T01:04:21.491Z,100065.47
2022-10-16T01:04:55.756Z,100056.78
2022-10-16T01:05:54.489Z,100071.94
2022-10-16T01:07:03.920Z,100076.91
2022-10-16T01:08:16.545Z,100067.53
2022-10-16T01:09:17.848Z,100073.31
2022-10-16T01:10:28.499Z,100080.44
2022-10-16T01:11:37.149Z,100074.16
2022-10-16T01:12:59.479Z,100074.16
2022-10-16T01:13:48.521Z,100068.84
2022-10-16T01:15:01.574Z,100081.47
2022-10-16T01:16:22.519Z,100081.13
2022-10-16T01:17:16.565Z,100064.56
2022-10-16T01:18:04.479Z,100073.94
2022-10-16T01:18:58.509Z,100071.41
2022-10-16T01:19:37.784Z,100070.19
2022-10-16T01:21:08.496Z,100083.97
2022-10-16T01:21:45.726Z,100086.88
2022-10-16T01:22:34.466Z,100070.88
2022-10-16T01:23:26.181Z,100086.22
2022-10-16T01:24:58.605Z,100083.13
2022-10-16T01:25:55.281Z,100086.88
2022-10-16T01:27:32.488Z,100092.00
2022-10-16T01:28:07.420Z,100092.66
2022-10-16T01:29:27.473Z,100084.31
2022-10-16T01:30:17.489Z,100085.16
2022-10-16T01:31:01.552Z,100075.97
2022-10-16T01:31:46.469Z,100080.09
2022-10-16T01:33:02.550Z,100088.91
2022-10-16T01:35:11.636Z,100077.38
2022-10-16T01:35:59.511Z,100077.88
2022-10-16T01:36:47.544Z,100077.38
2022-10-16T01:37:56.501Z,100075.31
2022-10-16T01:38:44.544Z,100065.44
2022-10-16T01:39:30.483Z,100066.81
2022-10-16T01:40:17.560Z,100058.81
2022-10-16T01:41:03.489Z,100079.78
2022-10-16T01:41:52.516Z,100075.00
2022-10-16T01:42:47.529Z,100080.44
2022-10-16T01:43:36.516Z,100083.19
2022-10-16T01:44:27.447Z,100089.63
2022-10-16T01:45:08.845Z,100081.97
2022-10-16T01:45:52.434Z,100097.81
2022-10-16T01:46:33.490Z,100098.13
2022-10-16T01:47:07.545Z,100092.50
2022-10-16T01:47:42.215Z,100096.13
2022-10-16T01:48:27.449Z,100083.97
2022-10-16T01:49:01.532Z,100100.16
2022-10-16T01:49:37.824Z,100078.53
2022-10-16T01:50:18.454Z,100097.75
2022-10-16T01:51:06.505Z,100084.16
2022-10-16T01:51:46.466Z,100089.09
2022-10-16T01:52:31.601Z,100085.03
2022-10-16T01:53:13.456Z,100095.91
2022-10-16T01:53:58.513Z,100084.81
2022-10-16T01:54:41.454Z,100092.19
2022-10-16T01:55:27.512Z,100098.47
2022-10-16T01:56:08.447Z,100073.63
2022-10-16T01:56:56.482Z,100093.88
2022-10-16T01:57:31.545Z,100102.56
2022-10-16T01:58:21.433Z,100097.13
2022-10-16T01:59:16.820Z,100108.00
2022-10-16T02:00:07.442Z,100097.78
2022-10-16T02:00:45.013Z,100098.66
2022-10-16T02:01:34.465Z,100098.50
2022-10-16T02:02:17.470Z,100105.84
2022-10-16T02:03:01.499Z,100104.81
2022-10-16T02:03:42.431Z,100099.22
2022-10-16T02:04:32.521Z,100087.66
2022-10-16T02:05:35.462Z,100097.13
2022-10-16T02:06:15.505Z,100096.47
2022-10-16T02:06:55.442Z,100087.47
2022-10-16T02:07:42.469Z,100096.50
2022-10-16T02:08:16.204Z,100090.00
2022-10-16T02:09:04.429Z,100103.50
2022-10-16T02:09:58.425Z,100103.00
2022-10-16T02:10:52.432Z,100102.47
2022-10-16T02:11:46.414Z,100105.19
2022-10-16T02:12:46.482Z,100089.84
2022-10-16T02:13:58.448Z,100116.78
2022-10-16T02:14:53.441Z,100116.94
2022-10-16T02:15:47.450Z,100107.59
2022-10-16T02:16:50.419Z,100119.66
2022-10-16T02:17:44.424Z,100101.94
2022-10-16T02:18:25.408Z,100109.06
2022-10-16T02:19:05.514Z,100104.81
2022-10-16T02:19:46.426Z,100109.38
2022-10-16T02:20:32.491Z,100112.63
2022-10-16T02:21:24.443Z,100103.44
2022-10-16T02:22:08.479Z,100102.28
2022-10-16T02:22:54.466Z,100122.53
2022-10-16T02:24:14.523Z,100117.41
2022-10-16T02:25:25.433Z,100120.25
2022-10-16T02:26:06.479Z,100117.22
2022-10-16T02:26:55.431Z,100124.34
2022-10-16T02:28:01.587Z,100122.66
2022-10-16T02:29:06.434Z,100119.28
2022-10-16T02:30:09.427Z,100116.94
2022-10-16T02:31:13.398Z,100111.34
2022-10-16T02:32:15.426Z,100118.00
2022-10-16T02:33:11.440Z,100115.63
2022-10-16T02:34:06.428Z,100118.78
2022-10-16T02:35:03.444Z,100099.34
2022-10-16T02:35:59.412Z,100119.81
2022-10-16T02:36:55.455Z,100107.00
2022-10-16T02:37:50.385Z,100121.81
2022-10-16T02:38:32.439Z,100108.88
2022-10-16T02:39:13.478Z,100116.56
2022-10-16T02:39:53.407Z,100108.41
2022-10-16T02:40:34.493Z,100097.47
2022-10-16T02:41:15.409Z,100107.38
2022-10-16T02:41:55.466Z,100104.28
2022-10-16T02:42:44.409Z,100119.94
2022-10-16T02:43:25.089Z,100115.16
2022-10-16T02:44:06.470Z,100123.69
2022-10-16T02:44:46.589Z,100123.69
2022-10-16T02:45:27.403Z,100129.13
2022-10-16T02:46:07.487Z,100136.94
2022-10-16T02:46:47.425Z,100126.91
2022-10-16T02:47:27.542Z,100115.16
2022-10-16T02:48:07.420Z,100126.22
2022-10-16T02:48:47.556Z,100130.09
2022-10-16T02:49:27.412Z,100136.94
2022-10-16T02:50:07.471Z,100120.31
2022-10-16T02:50:47.402Z,100110.56
2022-10-16T02:51:27.791Z,100118.91
2022-10-16T02:52:07.429Z,100118.91
2022-10-16T02:52:47.499Z,100144.06
2022-10-16T02:53:28.397Z,100144.63
2022-10-16T02:54:09.484Z,100135.25
2022-10-16T02:54:49.415Z,100121.94
2022-10-16T02:55:29.457Z,100141.34
2022-10-16T02:56:09.505Z,100126.72
2022-10-16T02:56:49.480Z,100137.28
2022-10-16T02:57:29.609Z,100137.28
2022-10-16T02:58:09.479Z,100138.13
2022-10-16T02:58:50.396Z,100129.72
2022-10-16T02:59:30.466Z,100122.94
2022-10-16T03:00:19.448Z,100134.59
2022-10-16T03:00:59.630Z,100128.13
2022-10-16T03:01:39.421Z,100127.75
2022-10-16T03:02:19.461Z,100129.13
2022-10-16T03:02:59.373Z,100132.25
2022-10-16T03:03:39.444Z,100131.19
2022-10-16T03:04:19.398Z,100137.13
2022-10-16T03:04:59.505Z,100118.56
2022-10-16T03:05:39.413Z,100122.97
2022-10-16T03:06:19.503Z,100116.19
2022-10-16T03:06:59.381Z,100121.81
2022-10-16T03:07:53.406Z,100126.06
2022-10-16T03:08:47.371Z,100143.09
2022-10-16T03:09:41.372Z,100132.53
2022-10-16T03:10:35.405Z,100128.19
2022-10-16T03:11:16.413Z,100126.16
2022-10-16T03:11:56.657Z,100123.25
2022-10-16T03:12:37.385Z,100110.50
2022-10-16T03:13:17.462Z,100107.53
2022-10-16T03:13:57.386Z,100098.19
2022-10-16T03:14:37.559Z,100126.31
2022-10-16T03:15:18.365Z,100141.81
2022-10-16T03:16:12.381Z,100130.41
2022-10-16T03:16:52.376Z,100132.13
2022-10-16T03:17:33.491Z,100132.53
2022-10-16T03:18:14.372Z,100119.50
2022-10-16T03:18:57.537Z,100119.09
2022-10-16T03:19:37.370Z,100126.63
2022-10-16T03:20:18.501Z,100129.53
2022-10-16T03:20:58.368Z,100129.53
2022-10-16T03:21:38.546Z,100116.88
2022-10-16T03:22:18.389Z,100115.72
2022-10-16T03:22:58.451Z,100132.63
2022-10-16T03:23:39.393Z,100125.13
2022-10-16T03:24:19.464Z,100116.88
2022-10-16T03:24:59.379Z,100123.69
2022-10-16T03:25:39.458Z,100110.06
2022-10-16T03:26:19.362Z,100106.84
2022-10-16T03:26:59.440Z,100116.72
2022-10-16T03:27:39.422Z,100121.63
2022-10-16T03:28:19.456Z,100128.50
2022-10-16T03:29:00.470Z,100109.22
2022-10-16T03:29:40.412Z,100128.81
2022-10-16T03:30:20.382Z,100117.91
2022-10-16T03:31:00.450Z,100135.25
2022-10-16T03:31:41.371Z,100134.25
2022-10-16T03:32:21.452Z,100122.00
2022-10-16T03:33:01.497Z,100118.91
2022-10-16T03:33:41.428Z,100133.94
2022-10-16T03:34:22.357Z,100124.78
2022-10-16T03:35:02.417Z,100128.50
2022-10-16T03:35:43.368Z,100121.38
2022-10-16T03:36:23.597Z,100119.94
2022-10-16T03:37:03.363Z,100128.59
2022-10-16T03:37:43.427Z,100128.19
2022-10-16T03:38:23.397Z,100124.78
2022-10-16T03:39:03.461Z,100123.25
2022-10-16T03:39:44.341Z,100126.81
2022-10-16T03:40:25.408Z,100140.78
2022-10-16T03:41:05.341Z,100132.78
2022-10-16T03:41:47.298Z,100127.97
2022-10-16T03:42:27.332Z,100137.88
2022-10-16T03:43:07.480Z,100139.41
2022-10-16T03:43:47.385Z,100114.00
2022-10-16T03:44:27.417Z,100134.25
2022-10-16T03:45:07.341Z,100135.66
2022-10-16T03:45:47.443Z,100140.78
2022-10-16T03:46:27.357Z,100128.81
2022-10-16T03:47:07.408Z,100140.69
2022-10-16T03:47:47.349Z,100122.00
2022-10-16T03:48:27.398Z,100137.38
2022-10-16T03:49:09.795Z,100139.94
2022-10-16T03:49:50.417Z,100127.09
2022-10-16T03:50:30.363Z,100133.63
2022-10-16T03:51:10.441Z,100137.03
2022-10-16T03:51:51.349Z,100124.38
2022-10-16T03:52:31.410Z,100151.44
2022-10-16T03:53:12.342Z,100150.91
2022-10-16T03:53:52.445Z,100153.81
2022-10-16T03:54:33.355Z,100159.59
2022-10-16T03:55:14.385Z,100151.97
2022-10-16T03:55:54.323Z,100165.28
2022-10-16T03:56:34.455Z,100170.03
2022-10-16T03:57:15.353Z,100174.94
2022-10-16T03:57:55.404Z,100168.06
2022-10-16T03:58:35.345Z,100150.53
2022-10-16T03:59:15.400Z,100169.00
2022-10-16T03:59:56.348Z,100168.00
2022-10-16T04:00:36.433Z,100155.91
2022-10-16T04:01:16.367Z,100176.53
2022-10-16T04:01:56.397Z,100161.16
2022-10-16T04:02:36.362Z,100168.00
2022-10-16T04:03:18.249Z,100158.81
2022-10-16T04:03:58.349Z,100169.69
2022-10-16T04:04:38.422Z,100161.22
2022-10-16T04:05:19.364Z,100155.91
2022-10-16T04:05:59.624Z,100170.72
2022-10-16T04:06:39.323Z,100162.19
2022-10-16T04:07:19.393Z,100166.97
2022-10-16T04:07:59.324Z,100160.84
2022-10-16T04:08:40.117Z,100180.38
2022-10-16T04:09:20.339Z,100178.88
2022-10-16T04:10:00.407Z,100173.75
2022-10-16T04:10:41.393Z,100157.41
2022-10-16T04:11:21.399Z,100179.75
2022-10-16T04:12:02.336Z,100183.53
2022-10-16T04:12:42.396Z,100184.88
2022-10-16T04:13:23.323Z,100167.16
2022-10-16T04:14:03.820Z,100161.88
2022-10-16T04:14:43.353Z,100180.63
2022-10-16T04:15:23.383Z,100160.03
2022-10-16T04:16:04.373Z,100151.69
2022-10-16T04:16:44.402Z,100158.50
2022-10-16T04:17:24.769Z,100163.63
2022-10-16T04:18:05.396Z,100166.84
2022-10-16T04:18:45.330Z,100174.19
2022-10-16T04:19:25.371Z,100171.13
2022-10-16T04:20:05.321Z,100170.59
2022-10-16T04:20:45.369Z,100172.97
2022-10-16T04:21:26.339Z,100171.25
2022-10-16T04:22:06.381Z,100169.75
2022-10-16T04:22:46.324Z,100160.91
2022-10-16T04:23:26.387Z,100169.22
2022-10-16T04:24:06.320Z,100156.09
2022-10-16T04:24:46.386Z,100154.94
2022-10-16T04:25:26.318Z,100161.53
2022-10-16T04:26:07.376Z,100164.63
2022-10-16T04:26:48.335Z,100175.31
2022-10-16T04:27:29.427Z,100169.41
2022-10-16T04:28:10.310Z,100169.06
2022-10-16T04:28:51.444Z,100179.59
2022-10-16T04:29:31.312Z,100183.38
2022-10-16T04:30:12.402Z,100166.84
2022-10-16T04:30:52.322Z,100175.50
2022-10-16T04:31:32.376Z,100180.94
2022-10-16T04:32:13.334Z,100184.88
2022-10-16T04:32:57.413Z,100178.38
2022-10-16T04:33:37.315Z,100178.22
2022-10-16T04:34:17.398Z,100167.66
2022-10-16T04:34:57.294Z,100158.50
2022-10-16T04:35:37.399Z,100176.22
2022-10-16T04:36:18.311Z,100190.19
2022-10-16T04:36:58.408Z,100172.41
2022-10-16T04:37:39.412Z,100190.50
2022-10-16T04:38:19.459Z,100182.31
2022-10-16T04:38:59.305Z,100175.78
2022-10-16T04:39:39.364Z,100184.81
2022-10-16T04:40:20.283Z,100182.97
2022-10-16T04:41:00.863Z,100193.88
2022-10-16T04:41:41.285Z,100182.81
2022-10-16T04:42:21.404Z,100191.66
2022-10-16T04:43:01.351Z,100190.50
2022-10-16T04:43:42.497Z,100200.66
2022-10-16T04:44:22.302Z,100200.53
2022-10-16T04:45:02.360Z,100205.44
2022-10-16T04:45:42.286Z,100198.09
2022-10-16T04:46:22.396Z,100207.47
2022-10-16T04:47:03.294Z,100205.72
2022-10-16T04:47:43.354Z,100196.78
2022-10-16T04:48:23.336Z,100199.72
2022-10-16T04:49:03.397Z,100202.28
2022-10-16T04:49:44.322Z,100205.00
2022-10-16T04:50:24.348Z,100194.44
2022-10-16T04:51:04.299Z,100189.34
2022-10-16T04:51:44.359Z,100207.03
2022-10-16T04:52:26.356Z,100196.00
2022-10-16T04:53:06.454Z,100198.09
2022-10-16T04:53:46.323Z,100198.84
2022-10-16T04:54:26.338Z,100203.19
2022-10-16T04:55:09.300Z,100202.34
2022-10-16T04:55:50.405Z,100190.19
2022-10-16T04:56:31.315Z,100187.59
2022-10-16T04:57:11.365Z,100205.00
2022-10-16T04:57:51.282Z,100189.53
2022-10-16T04:58:31.353Z,100191.19
2022-10-16T04:59:11.300Z,100181.50
2022-10-16T04:59:51.354Z,100194.34
2022-10-16T05:00:31.291Z,100182.09
2022-10-16T05:01:11.380Z,100187.53
2022-10-16T05:01:52.285Z,100179.53
2022-10-16T05:02:32.411Z,100185.06
2022-10-16T05:03:15.399Z,100171.94
2022-10-16T05:03:55.347Z,100197.50
2022-10-16T05:04:35.299Z,100188.81
2022-10-16T05:05:15.390Z,100199.25
2022-10-16T05:05:55.282Z,100189.34
2022-10-16T05:06:35.333Z,100192.97
2022-10-16T05:07:16.284Z,100182.44
2022-10-16T05:07:56.349Z,100184.81
2022-10-16T05:08:37.292Z,100172.66
2022-10-16T05:09:17.355Z,100169.63
2022-10-16T05:09:57.310Z,100193.69
2022-10-16T05:10:37.335Z,100162.13
2022-10-16T05:11:17.267Z,100179.19
2022-10-16T05:12:11.284Z,100182.44
2022-10-16T05:13:05.289Z,100181.25
2022-10-16T05:13:59.301Z,100183.28
2022-10-16T05:14:53.292Z,100164.72
2022-10-16T05:15:33.325Z,100187.41
2022-10-16T05:16:13.350Z,100180.25
2022-10-16T05:16:55.284Z,100186.03
2022-10-16T05:17:35.362Z,100188.06
2022-10-16T05:18:16.286Z,100187.53
2022-10-16T05:19:22.404Z,100191.81
2022-10-16T05:19:56.251Z,100198.44
2022-10-16T05:20:43.282Z,100177.25
2022-10-16T05:21:37.295Z,100199.13
2022-10-16T05:22:31.290Z,100201.16
2022-10-16T05:23:25.291Z,100192.84
2022-10-16T05:24:19.304Z,100203.25
2022-10-16T05:25:13.271Z,100200.84
2022-10-16T05:26:05.284Z,100198.78
2022-10-16T05:26:39.334Z,100198.28
2022-10-16T05:27:26.444Z,100201.50
2022-10-16T05:28:00.376Z,100185.47
2022-10-16T05:28:47.313Z,100171.09
2022-10-16T05:29:21.412Z,100208.47
2022-10-16T05:30:09.958Z,100196.13
2022-10-16T05:30:46.321Z,100189.69
2022-10-16T05:31:27.309Z,100195.13
2022-10-16T05:32:07.338Z,100218.13
2022-10-16T05:32:48.253Z,100206.75
2022-10-16T05:33:31.335Z,100206.94
2022-10-16T05:34:12.286Z,100191.03
2022-10-16T05:34:52.555Z,100206.50
2022-10-16T05:35:32.259Z,100216.28
2022-10-16T05:36:16.325Z,100195.47
2022-10-16T05:36:57.273Z,100207.72
2022-10-16T05:37:37.321Z,100211.53
2022-10-16T05:38:17.249Z,100215.78
2022-10-16T05:38:58.296Z,100222.25
2022-10-16T05:39:39.228Z,100212.88
2022-10-16T05:40:20.398Z,100209.84
2022-10-16T05:41:01.321Z,100219.22
2022-10-16T05:41:41.352Z,100205.75
2022-10-16T05:42:22.345Z,100210.75
2022-10-16T05:43:03.377Z,100207.59
2022-10-16T05:43:43.261Z,100221.22
2022-10-16T05:44:23.386Z,100226.53
2022-10-16T05:45:03.241Z,100216.50
2022-10-16T05:45:43.514Z,100221.75
2022-10-16T05:46:24.330Z,100214.63
2022-10-16T05:47:04.380Z,100227.31
2022-10-16T05:47:45.279Z,100203.72
2022-10-16T05:48:25.328Z,100216.53
2022-10-16T05:49:05.262Z,100219.94
2022-10-16T05:49:45.373Z,100218.94
2022-10-16T05:50:25.257Z,100217.06
2022-10-16T05:51:22.246Z,100220.84
2022-10-16T05:52:16.270Z,100215.75
2022-10-16T05:53:04.269Z,100226.47
2022-10-16T05:53:40.364Z,100216.88
2022-10-16T05:54:27.233Z,100215.28
2022-10-16T05:55:01.317Z,100213.88
2022-10-16T05:55:49.239Z,100221.34
2022-10-16T05:56:23.341Z,100212.47
2022-10-16T05:57:10.226Z,100223.91
2022-10-16T05:57:44.313Z,100220.50
2022-10-16T05:58:24.261Z,100224.78
2022-10-16T05:59:04.292Z,100220.00
2022-10-16T05:59:45.235Z,100204.38
2022-10-16T06:00:25.325Z,100224.28
2022-10-16T06:01:11.260Z,100226.34
2022-10-16T06:01:51.328Z,100213.41
2022-10-16T06:02:32.239Z,100231.59
2022-10-16T06:03:12.292Z,100225.81
2022-10-16T06:03:53.251Z,100224.97
2022-10-16T06:04:33.275Z,100226.47
2022-10-16T06:05:14.212Z,100218.63
2022-10-16T06:05:54.952Z,100216.59
2022-10-16T06:06:37.251Z,100238.09
2022-10-16T06:07:17.318Z,100222.31
2022-10-16T06:07:57.245Z,100235.00
2022-10-16T06:08:51.242Z,100230.25
2022-10-16T06:09:31.225Z,100226.34
2022-10-16T06:10:13.319Z,100222.78
2022-10-16T06:10:55.235Z,100220.06
2022-10-16T06:11:38.286Z,100240.13
2022-10-16T06:12:19.224Z,100232.66
2022-10-16T06:12:59.298Z,100242.69
2022-10-16T06:13:39.244Z,100229.19
2022-10-16T06:14:19.261Z,100233.31
2022-10-16T06:14:54.402Z,100221.81
2022-10-16T06:15:41.249Z,100236.41
2022-10-16T06:16:16.716Z,100248.31
2022-10-16T06:17:03.233Z,100238.81
2022-10-16T06:17:37.377Z,100240.81
2022-10-16T06:18:24.372Z,100243.91
2022-10-16T06:19:03.355Z,100246.94
2022-10-16T06:19:45.262Z,100256.66
2022-10-16T06:20:25.324Z,100248.13
2022-10-16T06:21:06.237Z,100244.38
2022-10-16T06:21:46.368Z,100249.34
2022-10-16T06:22:27.225Z,100249.72
2022-10-16T06:23:07.336Z,100250.75
2022-10-16T06:23:47.307Z,100253.59
2022-10-16T06:24:27.353Z,100249.00
2022-10-16T06:25:07.254Z,100243.56
2022-10-16T06:25:47.399Z,100247.84
2022-10-16T06:26:31.249Z,100256.50
2022-10-16T06:27:12.357Z,100241.19
2022-10-16T06:27:52.225Z,100257.91
2022-10-16T06:28:32.329Z,100249.75
2022-10-16T06:29:13.229Z,100250.38
2022-10-16T06:29:53.290Z,100260.63
2022-10-16T06:30:36.257Z,100258.25
2022-10-16T06:31:18.321Z,100244.59
2022-10-16T06:32:00.226Z,100266.75
2022-10-16T06:32:40.336Z,100271.22
2022-10-16T06:33:21.236Z,100247.00
2022-10-16T06:34:03.022Z,100268.63
2022-10-16T06:34:44.173Z,100263.53
2022-10-16T06:35:24.812Z,100264.03
2022-10-16T06:36:22.340Z,100276.00
2022-10-16T06:37:03.316Z,100270.53
2022-10-16T06:37:43.273Z,100266.44
2022-10-16T06:38:23.356Z,100261.66
2022-10-16T06:39:04.262Z,100275.28
2022-10-16T06:39:45.562Z,100271.88
2022-10-16T06:40:25.214Z,100258.25
2022-10-16T06:41:06.446Z,100274.91
2022-10-16T06:41:47.296Z,100263.69
2022-10-16T06:42:27.668Z,100272.72
2022-10-16T06:43:09.208Z,100265.38
2022-10-16T06:43:49.360Z,100281.72
2022-10-16T06:44:29.221Z,100281.56
2022-10-16T06:45:09.281Z,100286.47
2022-10-16T06:45:50.250Z,100288.69
2022-10-16T06:46:32.376Z,100278.75
2022-10-16T06:47:13.312Z,100276.50
2022-10-16T06:47:53.267Z,100286.44
2022-10-16T06:48:34.216Z,100281.84
2022-10-16T06:49:16.863Z,100286.81
2022-10-16T06:49:57.225Z,100286.63
2022-10-16T06:50:37.341Z,100286.16
2022-10-16T06:51:32.232Z,100283.44
2022-10-16T06:52:12.308Z,100275.53
2022-10-16T06:52:52.243Z,100272.00
2022-10-16T06:53:40.110Z,100276.94
2022-10-16T06:54:41.830Z,100290.19
2022-10-16T06:55:22.294Z,100293.47
2022-10-16T06:56:06.029Z,100258.81
2022-10-16T06:56:46.370Z,100283.72
2022-10-16T06:57:27.228Z,100277.91
2022-10-16T06:58:07.227Z,100279.28
2022-10-16T06:58:41.277Z,100291.22
2022-10-16T06:59:31.241Z,100294.13
2022-10-16T07:00:05.302Z,100279.28
2022-10-16T07:00:52.221Z,100268.56
2022-10-16T07:01:28.464Z,100281.72
2022-10-16T07:02:17.233Z,100282.56
2022-10-16T07:02:51.292Z,100283.63
2022-10-16T07:03:31.226Z,100282.53
2022-10-16T07:04:11.261Z,100288.22
2022-10-16T07:04:51.185Z,100293.00
2022-10-16T07:05:31.286Z,100276.66
2022-10-16T07:06:13.209Z,100276.13
2022-10-16T07:06:53.368Z,100293.00
2022-10-16T07:07:34.210Z,100291.84
2022-10-16T07:08:15.267Z,100286.91
2022-10-16T07:08:56.218Z,100285.03
2022-10-16T07:09:36.665Z,100298.16
2022-10-16T07:10:17.171Z,100299.31
2022-10-16T07:11:23.169Z,100299.47
2022-10-16T07:12:17.215Z,100274.59
2022-10-16T07:13:11.194Z,100300.88
2022-10-16T07:14:06.224Z,100300.81
2022-10-16T07:15:00.197Z,100301.84
2022-10-16T07:15:55.182Z,100301.34
2022-10-16T07:16:49.197Z,100315.34
2022-10-16T07:17:43.190Z,100304.28
2022-10-16T07:18:37.239Z,100303.06
2022-10-16T07:19:25.255Z,100315.03
2022-10-16T07:19:59.266Z,100292.97
2022-10-16T07:20:46.222Z,100319.41
2022-10-16T07:21:23.799Z,100325.50
2022-10-16T07:22:12.179Z,100324.28
2022-10-16T07:22:46.277Z,100327.88
2022-10-16T07:23:33.186Z,100324.16
2022-10-16T07:24:08.298Z,100302.13
2022-10-16T07:24:52.446Z,100327.56
2022-10-16T07:25:33.273Z,100316.28
2022-10-16T07:26:14.182Z,100326.53
2022-10-16T07:26:54.320Z,100320.59
2022-10-16T07:27:35.197Z,100320.88
2022-10-16T07:28:15.216Z,100326.69
2022-10-16T07:28:56.274Z,100332.84
2022-10-16T07:29:36.261Z,100324.28
2022-10-16T07:30:17.200Z,100326.91
2022-10-16T07:30:57.331Z,100332.34
2022-10-16T07:31:37.169Z,100336.97
2022-10-16T07:32:17.305Z,100310.31
2022-10-16T07:32:58.189Z,100328.28
2022-10-16T07:33:39.617Z,100327.75
2022-10-16T07:34:21.172Z,100333.19
2022-10-16T07:35:01.295Z,100325.69
2022-10-16T07:35:41.198Z,100306.25
2022-10-16T07:36:24.323Z,100335.06
2022-10-16T07:37:04.177Z,100336.47
2022-10-16T07:37:44.271Z,100334.38
2022-10-16T07:38:25.187Z,100325.03
2022-10-16T07:39:05.330Z,100335.06
2022-10-16T07:39:45.184Z,100331.22
2022-10-16T07:40:25.240Z,100335.25
2022-10-16T07:41:07.202Z,100336.66
2022-10-16T07:41:47.237Z,100334.31
2022-10-16T07:42:28.186Z,100330.19
2022-10-16T07:43:08.242Z,100339.03
2022-10-16T07:43:55.149Z,100334.97
2022-10-16T07:44:35.260Z,100332.44
2022-10-16T07:45:16.171Z,100332.97
2022-10-16T07:45:59.026Z,100323.56
2022-10-16T07:46:43.202Z,100330.75
2022-10-16T07:47:23.371Z,100320.34
2022-10-16T07:48:03.213Z,100322.41
2022-10-16T07:48:46.562Z,100321.03
2022-10-16T07:49:26.143Z,100326.00
2022-10-16T07:50:06.212Z,100321.72
2022-10-16T07:50:46.178Z,100333.84
2022-10-16T07:51:29.362Z,100333.84
2022-10-16T07:52:10.282Z,100311.00
2022-10-16T07:52:50.267Z,100316.25
2022-10-16T07:53:32.150Z,100331.28
2022-10-16T07:54:12.410Z,100330.25
2022-10-16T07:54:52.240Z,100341.34
2022-10-16T07:55:32.218Z,100329.78
2022-10-16T07:56:14.188Z,100346.59
2022-10-16T07:56:54.242Z,100343.16
2022-10-16T07:57:35.205Z,100327.53
2022-10-16T07:58:15.262Z,100340.13
2022-10-16T07:58:57.147Z,100343.53
2022-10-16T07:59:37.234Z,100326.88
2022-10-16T08:00:21.156Z,100333.88
2022-10-16T08:01:02.256Z,100336.25
2022-10-16T08:01:42.189Z,100329.28
2022-10-16T08:02:22.209Z,100326.03
2022-10-16T08:03:04.188Z,100322.63
2022-10-16T08:03:44.274Z,100334.94
2022-10-16T08:04:25.153Z,100316.69
2022-10-16T08:05:05.237Z,100335.28
2022-10-16T08:05:45.154Z,100327.91
2022-10-16T08:06:28.124Z,100324.53
2022-10-16T08:07:09.166Z,100321.31
2022-10-16T08:07:49.226Z,100320.84
2022-10-16T08:08:29.185Z,100317.09
2022-10-16T08:09:09.218Z,100311.13
2022-10-16T08:09:50.121Z,100318.78
2022-10-16T08:10:33.215Z,100326.47
2022-10-16T08:11:14.183Z,100308.41
2022-10-16T08:12:10.158Z,100319.13
2022-10-16T08:13:52.169Z,100324.44
2022-10-16T08:14:32.221Z,100320.88
2022-10-16T08:15:13.108Z,100301.44
2022-10-16T08:15:54.196Z,100321.91
2022-10-16T08:16:34.161Z,100316.97
2022-10-16T08:17:14.219Z,100317.47
2022-10-16T08:18:13.150Z,100320.91
2022-10-16T08:19:01.172Z,100312.69
2022-10-16T08:20:00.160Z,100326.84
2022-10-16T08:20:55.164Z,100309.81
2022-10-16T08:21:49.143Z,100327.69
2022-10-16T08:22:43.145Z,100331.47